createdAt,value
2018-02-11T00:00:40.504Z,32.00
2018-02-11T00:03:43.793Z,36.80
2018-02-11T00:06:47.221Z,31.23
2018-02-11T00:09:50.493Z,32.53
2018-02-11T00:12:53.769Z,29.40
2018-02-11T00:15:57.086Z,35.87
2018-02-11T00:19:01.119Z,32.13
2018-02-11T00:22:04.412Z,37.30
2018-02-11T00:25:07.688Z,26.97
2018-02-11T00:28:11.781Z,29.20
2018-02-11T00:31:15.128Z,29.03
2018-02-11T00:34:18.557Z,26.83
2018-02-11T00:37:27.456Z,27.53
2018-02-11T00:40:30.768Z,31.47
2018-02-11T00:43:34.316Z,24.23
2018-02-11T00:46:37.684Z,26.47
2018-02-11T00:49:41.004Z,27.90
2018-02-11T00:52:45.061Z,29.90
2018-02-11T00:55:48.337Z,25.50
2018-02-11T00:58:52.378Z,26.23
2018-02-11T01:01:55.663Z,29.27
2018-02-11T01:04:59.692Z,22.00
2018-02-11T01:08:03.025Z,32.00
2018-02-11T01:11:06.285Z,26.70
2018-02-11T01:14:09.557Z,25.17
2018-02-11T01:17:13.575Z,26.97
2018-02-11T01:20:17.626Z,27.47
2018-02-11T01:23:20.895Z,25.23
2018-02-11T01:26:24.928Z,23.17
2018-02-11T01:29:28.356Z,24.00
2018-02-11T01:32:31.619Z,30.53
2018-02-11T01:35:34.884Z,22.93
2018-02-11T01:38:39.033Z,21.20
2018-02-11T01:41:42.296Z,25.60
2018-02-11T01:44:45.617Z,20.03
2018-02-11T01:47:48.855Z,17.87
2018-02-11T01:50:52.287Z,20.20
2018-02-11T01:53:56.344Z,19.87
2018-02-11T01:56:59.617Z,23.87
2018-02-11T02:00:03.007Z,22.10
2018-02-11T02:03:07.056Z,20.13
2018-02-11T02:06:10.331Z,19.57
2018-02-11T02:09:14.358Z,17.73
2018-02-11T02:12:18.402Z,15.60
2018-02-11T02:15:21.677Z,15.87
2018-02-11T02:18:24.936Z,17.90
2018-02-11T02:21:28.224Z,21.10
2018-02-11T02:24:31.496Z,19.23
2018-02-11T02:27:34.778Z,21.10
2018-02-11T02:30:38.044Z,17.57
2018-02-11T02:33:42.090Z,16.03
2018-02-11T02:36:45.402Z,16.00
2018-02-11T02:39:48.701Z,15.27
2018-02-11T02:42:52.004Z,16.27
2018-02-11T02:45:55.284Z,19.90
2018-02-11T02:48:58.968Z,16.87
2018-02-11T02:52:02.263Z,20.47
2018-02-11T02:55:06.309Z,14.77
2018-02-11T02:58:09.564Z,22.17
2018-02-11T03:01:13.611Z,16.93
2018-02-11T03:04:16.887Z,17.03
2018-02-11T03:07:20.992Z,15.80
2018-02-11T03:10:25.022Z,16.80
2018-02-11T03:13:28.304Z,16.50
2018-02-11T03:16:32.340Z,18.80
2018-02-11T03:19:35.623Z,18.87
2018-02-11T03:22:38.971Z,16.43
2018-02-11T03:25:42.259Z,14.53
2018-02-11T03:28:45.549Z,17.57
2018-02-11T03:31:48.818Z,14.33
2018-02-11T03:34:52.092Z,13.33
2018-02-11T03:37:56.137Z,13.60
2018-02-11T03:40:59.400Z,14.67
2018-02-11T03:44:02.688Z,14.63
2018-02-11T03:47:06.046Z,10.03
2018-02-11T03:50:15.959Z,13.10
2018-02-11T03:53:20.001Z,14.43
2018-02-11T03:56:24.218Z,13.53
2018-02-11T03:59:27.686Z,13.10
2018-02-11T04:02:30.970Z,11.90
2018-02-11T04:05:34.241Z,12.53
2018-02-11T04:08:37.505Z,9.17
2018-02-11T04:11:40.991Z,11.03
2018-02-11T04:14:45.044Z,9.10
2018-02-11T04:17:48.325Z,9.23
2018-02-11T04:20:51.613Z,10.53
2018-02-11T04:23:54.900Z,12.27
2018-02-11T04:26:58.928Z,11.17
2018-02-11T04:30:02.212Z,9.70
2018-02-11T04:33:06.339Z,12.47
2018-02-11T04:36:10.420Z,11.30
2018-02-11T04:39:13.729Z,10.50
2018-02-11T04:42:17.050Z,10.90
2018-02-11T04:45:21.081Z,9.10
2018-02-11T04:48:24.337Z,7.87
2018-02-11T04:51:27.615Z,11.53
2018-02-11T04:54:30.888Z,7.90
2018-02-11T04:57:34.151Z,11.47
2018-02-11T05:00:38.180Z,9.97
2018-02-11T05:03:41.490Z,8.50
2018-02-11T05:06:44.823Z,9.60
2018-02-11T05:09:48.093Z,8.23
2018-02-11T05:12:51.374Z,7.97
2018-02-11T05:15:54.641Z,10.43
2018-02-11T05:18:58.707Z,7.10
2018-02-11T05:22:01.977Z,7.77
2018-02-11T05:25:05.444Z,7.27
2018-02-11T05:28:08.759Z,7.43
2018-02-11T05:31:13.608Z,10.07
2018-02-11T05:34:16.954Z,9.30
2018-02-11T05:37:21.120Z,9.20
2018-02-11T05:40:25.156Z,7.57
2018-02-11T05:43:28.416Z,7.33
2018-02-11T05:46:32.469Z,7.87
2018-02-11T05:49:35.742Z,7.77
2018-02-11T05:52:39.785Z,10.40
2018-02-11T05:55:43.057Z,7.03
2018-02-11T05:58:46.333Z,5.80
2018-02-11T06:01:50.393Z,7.33
2018-02-11T06:04:53.674Z,9.17
2018-02-11T06:07:56.944Z,7.23
2018-02-11T06:11:00.976Z,7.03
2018-02-11T06:14:04.251Z,6.77
2018-02-11T06:17:07.576Z,6.97
2018-02-11T06:20:10.889Z,9.30
2018-02-11T06:23:14.154Z,6.50
2018-02-11T06:26:18.187Z,8.20
2018-02-11T06:29:22.074Z,6.33
2018-02-11T06:32:25.351Z,8.87
2018-02-11T06:35:28.636Z,6.47
2018-02-11T06:38:31.926Z,8.03
2018-02-11T06:41:49.297Z,7.03
2018-02-11T06:44:53.329Z,7.03
2018-02-11T06:47:56.619Z,4.73
2018-02-11T06:51:00.681Z,7.17
2018-02-11T06:54:03.948Z,5.63
2018-02-11T06:57:07.278Z,7.07
2018-02-11T07:00:10.547Z,13.57
2018-02-11T07:03:13.849Z,13.53
2018-02-11T07:06:17.118Z,9.77
2018-02-11T07:09:21.176Z,14.10
2018-02-11T07:12:24.729Z,9.30
2018-02-11T07:15:28.027Z,7.77
2018-02-11T07:18:31.347Z,9.27
2018-02-11T07:21:34.646Z,7.23
2018-02-11T07:24:37.911Z,5.20
2018-02-11T07:27:42.684Z,4.93
2018-02-11T07:30:45.965Z,7.77
2018-02-11T07:33:49.988Z,6.20
2018-02-11T07:36:53.257Z,9.63
2018-02-11T07:39:57.323Z,6.83
2018-02-11T07:43:00.606Z,13.37
2018-02-11T07:46:03.893Z,12.13
2018-02-11T07:49:07.161Z,5.90
2018-02-11T07:52:11.944Z,7.27
2018-02-11T07:55:15.209Z,8.67
2018-02-11T07:58:19.240Z,9.07
2018-02-11T08:01:22.515Z,8.27
2018-02-11T08:04:26.552Z,9.63
2018-02-11T08:07:29.842Z,11.13
2018-02-11T08:10:33.144Z,13.27
2018-02-11T08:13:36.424Z,10.10
2018-02-11T08:16:40.445Z,10.23
2018-02-11T08:19:44.488Z,9.93
2018-02-11T08:22:47.946Z,8.70
2018-02-11T08:25:51.224Z,12.23
2018-02-11T08:28:54.507Z,10.73
2018-02-11T08:31:57.765Z,8.73
2018-02-11T08:35:01.054Z,8.83
2018-02-11T08:38:05.077Z,6.83
2018-02-11T08:41:08.472Z,7.03
2018-02-11T08:44:12.500Z,7.93
2018-02-11T08:47:15.768Z,10.60
2018-02-11T08:50:19.912Z,9.53
2018-02-11T08:53:23.184Z,9.93
2018-02-11T08:56:27.248Z,11.70
2018-02-11T08:59:30.512Z,9.33
2018-02-11T09:02:34.533Z,11.93
2018-02-11T09:05:37.809Z,10.33
2018-02-11T09:08:41.841Z,9.67
2018-02-11T09:11:45.953Z,9.30
2018-02-11T09:14:49.246Z,8.47
2018-02-11T09:17:53.297Z,11.63
2018-02-11T09:20:56.668Z,11.40
2018-02-11T09:23:59.935Z,11.50
2018-02-11T09:27:03.211Z,11.80
2018-02-11T09:30:06.481Z,10.77
2018-02-11T09:33:09.738Z,11.10
2018-02-11T09:36:13.082Z,10.07
2018-02-11T09:39:16.347Z,9.30
2018-02-11T09:42:37.961Z,9.73
2018-02-11T09:45:43.168Z,8.97
2018-02-11T09:48:47.231Z,10.43
2018-02-11T09:51:51.242Z,11.57
2018-02-11T09:54:54.752Z,10.20
2018-02-11T09:57:58.651Z,10.50
2018-02-11T10:01:02.544Z,11.70
2018-02-11T10:04:06.959Z,9.90
2018-02-11T10:07:10.822Z,11.03
2018-02-11T10:10:14.314Z,11.47
2018-02-11T10:13:17.776Z,10.70
2018-02-11T10:16:22.054Z,10.40
2018-02-11T10:19:44.622Z,11.97
2018-02-11T10:23:01.606Z,11.53
2018-02-11T10:26:05.101Z,12.10
2018-02-11T10:29:08.676Z,12.97
2018-02-11T10:32:12.437Z,13.33
2018-02-11T10:35:16.184Z,11.87
2018-02-11T10:38:19.534Z,9.93
2018-02-11T10:41:23.828Z,12.27
2018-02-11T10:44:28.707Z,10.77
2018-02-11T10:47:31.978Z,12.70
2018-02-11T10:50:35.261Z,12.10
2018-02-11T10:53:39.473Z,10.40
2018-02-11T10:56:42.736Z,12.60
2018-02-11T10:59:46.113Z,11.30
2018-02-11T11:02:49.388Z,12.93
2018-02-11T11:05:52.721Z,11.63
2018-02-11T11:08:56.341Z,10.57
2018-02-11T11:11:59.695Z,11.90
2018-02-11T11:15:02.988Z,11.20
2018-02-11T11:18:06.291Z,12.73
2018-02-11T11:21:09.578Z,11.37
2018-02-11T11:24:13.611Z,7.90
2018-02-11T11:27:16.888Z,10.90
2018-02-11T11:30:20.192Z,11.97
2018-02-11T11:33:23.500Z,10.00
2018-02-11T11:36:26.800Z,10.70
2018-02-11T11:39:30.089Z,9.57
2018-02-11T11:42:34.216Z,10.13
2018-02-11T11:45:37.495Z,11.32
2018-02-11T11:48:42.680Z,8.93
2018-02-11T11:51:46.152Z,11.10
2018-02-11T11:54:49.440Z,10.17
2018-02-11T11:57:52.749Z,8.73
2018-02-11T12:00:56.022Z,9.57
2018-02-11T12:04:00.086Z,9.87
2018-02-11T12:07:04.434Z,10.18
2018-02-11T12:10:07.715Z,12.13
2018-02-11T12:13:10.985Z,10.82
2018-02-11T12:16:14.246Z,11.70
2018-02-11T12:19:17.784Z,10.02
2018-02-11T12:22:21.077Z,10.90
2018-02-11T12:25:24.364Z,9.83
2018-02-11T12:28:28.393Z,10.33
2018-02-11T12:31:31.668Z,9.47
2018-02-11T12:34:35.177Z,9.20
2018-02-11T12:37:39.232Z,7.17
2018-02-11T12:40:42.506Z,8.03
2018-02-11T12:43:45.772Z,8.57
2018-02-11T12:46:49.820Z,8.07
2018-02-11T12:49:53.093Z,8.43
2018-02-11T12:52:57.168Z,9.97
2018-02-11T12:56:00.517Z,9.10
2018-02-11T12:59:03.837Z,8.17
2018-02-11T13:02:07.142Z,5.70
2018-02-11T13:05:10.419Z,7.82
2018-02-11T13:08:13.694Z,7.57
2018-02-11T13:11:17.740Z,8.20
2018-02-11T13:14:21.010Z,11.70
2018-02-11T13:17:25.049Z,7.60
2018-02-11T13:20:28.313Z,6.77
2018-02-11T13:23:32.344Z,8.33
2018-02-11T13:26:37.664Z,7.50
2018-02-11T13:29:40.924Z,5.18
2018-02-11T13:32:44.196Z,6.67
2018-02-11T13:35:47.456Z,6.67
2018-02-11T13:38:50.724Z,6.17
2018-02-11T13:41:54.001Z,7.27
2018-02-11T13:44:57.297Z,7.87
2018-02-11T13:48:00.589Z,7.70
2018-02-11T13:51:03.873Z,7.23
2018-02-11T13:54:07.920Z,7.12
2018-02-11T13:57:11.200Z,9.50
2018-02-11T14:00:14.481Z,6.20
2018-02-11T14:03:18.546Z,7.17
2018-02-11T14:06:21.817Z,5.63
2018-02-11T14:09:25.819Z,6.23
2018-02-11T14:12:29.804Z,6.03
2018-02-11T14:15:33.432Z,7.30
2018-02-11T14:18:37.408Z,10.83
2018-02-11T14:21:41.073Z,6.63
2018-02-11T14:24:44.951Z,6.80
2018-02-11T14:27:48.465Z,5.73
2018-02-11T14:30:52.502Z,5.80
2018-02-11T14:33:55.765Z,8.20
2018-02-11T14:36:59.833Z,5.00
2018-02-11T14:40:03.193Z,6.87
2018-02-11T14:43:06.823Z,6.45
2018-02-11T14:46:10.126Z,5.13
2018-02-11T14:49:13.402Z,11.00
2018-02-11T14:52:16.794Z,5.57
2018-02-11T14:55:20.823Z,5.80
2018-02-11T14:58:24.513Z,7.18
2018-02-11T15:01:28.573Z,7.73
2018-02-11T15:04:31.941Z,8.30
2018-02-11T15:07:35.245Z,13.43
2018-02-11T15:10:38.719Z,9.23
2018-02-11T15:13:42.749Z,9.90
2018-02-11T15:16:46.024Z,10.67
2018-02-11T15:19:49.294Z,9.87
2018-02-11T15:22:52.574Z,15.90
2018-02-11T15:25:55.817Z,9.20
2018-02-11T15:28:59.854Z,8.63
2018-02-11T15:32:03.176Z,9.47
2018-02-11T15:35:17.228Z,10.83
2018-02-11T15:38:20.496Z,11.30
2018-02-11T15:41:38.403Z,11.37
2018-02-11T15:44:42.341Z,10.77
2018-02-11T15:47:46.387Z,8.87
2018-02-11T15:50:49.719Z,11.03
2018-02-11T15:53:53.212Z,8.80
2018-02-11T15:56:56.477Z,10.90
2018-02-11T15:59:59.736Z,10.43
2018-02-11T16:03:03.769Z,9.07
2018-02-11T16:06:07.044Z,9.37
2018-02-11T16:09:10.324Z,9.50
2018-02-11T16:12:13.621Z,9.20
2018-02-11T16:15:17.741Z,7.57
2018-02-11T16:18:21.034Z,12.80
2018-02-11T16:21:24.316Z,11.73
2018-02-11T16:24:27.736Z,13.17
2018-02-11T16:27:31.722Z,13.30
2018-02-11T16:30:34.996Z,14.40
2018-02-11T16:33:38.456Z,9.32
2018-02-11T16:36:42.268Z,13.40
2018-02-11T16:39:45.539Z,13.93
2018-02-11T16:42:48.808Z,18.20
2018-02-11T16:45:52.129Z,13.03
2018-02-11T16:48:55.406Z,9.13
2018-02-11T16:51:58.738Z,13.40
2018-02-11T16:55:03.165Z,12.60
2018-02-11T16:58:07.258Z,14.27
2018-02-11T17:01:10.671Z,12.43
2018-02-11T17:04:14.972Z,14.32
2018-02-11T17:07:18.249Z,20.30
2018-02-11T17:10:21.531Z,15.83
2018-02-11T17:13:25.561Z,16.37
2018-02-11T17:16:28.829Z,26.03
2018-02-11T17:19:32.888Z,19.03
2018-02-11T17:22:36.158Z,13.53
2018-02-11T17:25:40.209Z,13.80
2018-02-11T17:28:43.506Z,13.53
2018-02-11T17:31:46.777Z,16.50
2018-02-11T17:34:50.094Z,14.45
2018-02-11T17:37:53.386Z,15.90
2018-02-11T17:40:56.695Z,17.90
2018-02-11T17:43:59.965Z,16.20
2018-02-11T17:47:04.225Z,12.80
2018-02-11T17:50:07.603Z,10.93
2018-02-11T17:53:10.939Z,9.63
2018-02-11T17:56:14.616Z,10.87
2018-02-11T17:59:17.986Z,9.37
2018-02-11T18:02:22.081Z,9.77
2018-02-11T18:05:26.257Z,12.63
2018-02-11T18:08:29.533Z,9.05
2018-02-11T18:11:32.807Z,8.93
2018-02-11T18:14:36.972Z,12.03
2018-02-11T18:17:40.335Z,11.40
2018-02-11T18:20:43.801Z,8.60
2018-02-11T18:23:48.530Z,8.38
2018-02-11T18:26:51.872Z,10.93
2018-02-11T18:29:55.196Z,9.20
2018-02-11T18:33:01.081Z,10.40
2018-02-11T18:36:04.468Z,12.87
2018-02-11T18:39:07.710Z,9.37
2018-02-11T18:42:11.982Z,8.13
2018-02-11T18:45:15.325Z,11.47
2018-02-11T18:48:19.463Z,9.20
2018-02-11T18:51:22.796Z,12.43
2018-02-11T18:54:26.208Z,9.77
2018-02-11T18:57:29.500Z,12.10
2018-02-11T19:00:32.900Z,11.17
2018-02-11T19:03:36.167Z,10.77
2018-02-11T19:06:39.558Z,12.07
2018-02-11T19:09:42.977Z,13.05
2018-02-11T19:12:46.275Z,14.00
2018-02-11T19:15:49.613Z,11.47
2018-02-11T19:18:53.702Z,16.90
2018-02-11T19:21:57.450Z,10.30
2018-02-11T19:25:00.717Z,11.50
2018-02-11T19:28:10.140Z,9.50
2018-02-11T19:31:13.454Z,12.27
2018-02-11T19:34:16.728Z,14.63
2018-02-11T19:37:20.018Z,11.03
2018-02-11T19:40:23.294Z,13.83
2018-02-11T19:43:27.319Z,13.23
2018-02-11T19:46:30.592Z,9.93
2018-02-11T19:49:34.622Z,11.18
2018-02-11T19:52:38.711Z,14.00
2018-02-11T19:55:41.983Z,10.47
2018-02-11T19:58:45.258Z,6.20
2018-02-11T20:01:48.525Z,5.07
2018-02-11T20:04:52.580Z,5.13
2018-02-11T20:07:55.902Z,8.63
2018-02-11T20:10:59.278Z,5.28
2018-02-11T20:14:02.644Z,7.43
2018-02-11T20:17:06.684Z,5.83
2018-02-11T20:20:09.965Z,4.27
2018-02-11T20:23:13.272Z,5.90
2018-02-11T20:26:16.539Z,5.93
2018-02-11T20:29:21.813Z,5.78
2018-02-11T20:32:25.064Z,7.07
2018-02-11T20:35:28.377Z,4.87
2018-02-11T20:38:32.507Z,6.47
2018-02-11T20:41:36.588Z,4.13
2018-02-11T20:44:39.820Z,3.17
2018-02-11T20:47:43.079Z,2.37
2018-02-11T20:50:46.421Z,3.07
2018-02-11T20:53:49.672Z,2.73
2018-02-11T20:56:53.471Z,2.10
2018-02-11T20:59:56.762Z,3.12
2018-02-11T21:03:00.181Z,4.20
2018-02-11T21:06:03.544Z,4.30
2018-02-11T21:09:06.860Z,8.90
2018-02-11T21:12:10.129Z,5.00
2018-02-11T21:15:13.394Z,10.27
2018-02-11T21:18:17.479Z,4.23
2018-02-11T21:21:20.779Z,6.00
2018-02-11T21:24:24.005Z,3.80
2018-02-11T21:27:28.033Z,3.97
2018-02-11T21:30:32.088Z,3.28
2018-02-11T21:33:35.342Z,4.03
2018-02-11T21:36:39.381Z,7.07
2018-02-11T21:39:42.673Z,4.43
2018-02-11T21:42:46.789Z,3.83
2018-02-11T21:45:50.066Z,3.00
2018-02-11T21:48:53.647Z,3.45
2018-02-11T21:51:56.924Z,3.33
2018-02-11T21:55:00.721Z,4.13
2018-02-11T21:58:04.001Z,2.97
2018-02-11T22:01:07.284Z,3.03
2018-02-11T22:04:17.204Z,4.83
2018-02-11T22:07:20.722Z,4.93
2018-02-11T22:10:24.482Z,4.75
2018-02-11T22:13:27.799Z,6.97
2018-02-11T22:16:31.097Z,4.90
2018-02-11T22:19:34.367Z,6.00
2018-02-11T22:22:37.625Z,4.93
2018-02-11T22:25:41.691Z,4.33
2018-02-11T22:28:44.962Z,4.27
2018-02-11T22:31:48.262Z,3.80
2018-02-11T22:34:51.532Z,7.05
2018-02-11T22:37:55.588Z,1.77
2018-02-11T22:40:58.840Z,3.83
2018-02-11T22:44:02.114Z,5.03
2018-02-11T22:47:05.384Z,5.47
2018-02-11T22:50:08.677Z,2.13
2018-02-11T22:53:11.940Z,4.97
2018-02-11T22:56:15.197Z,3.93
2018-02-11T22:59:18.510Z,1.83
2018-02-11T23:02:21.820Z,2.57
2018-02-11T23:05:26.092Z,1.83
2018-02-11T23:08:29.363Z,2.40
2018-02-11T23:11:32.689Z,2.40
2018-02-11T23:14:35.961Z,5.73
2018-02-11T23:17:39.269Z,2.40
2018-02-11T23:20:42.548Z,1.90
2018-02-11T23:23:46.581Z,4.00
2018-02-11T23:26:50.624Z,2.23
2018-02-11T23:29:53.898Z,3.03
2018-02-11T23:32:58.266Z,4.27
2018-02-11T23:36:01.529Z,3.30
2018-02-11T23:39:04.836Z,5.67
2018-02-11T23:42:08.140Z,2.83
2018-02-11T23:45:11.401Z,3.10
2018-02-11T23:48:14.736Z,5.90
2018-02-11T23:51:18.117Z,3.37
2018-02-11T23:54:21.384Z,2.17
2018-02-11T23:57:24.694Z,4.80
